Time;durP1;ratioP1;P1;durP2;ratioP2;P2;SDS_P1;SDS_P2;PMS_P1;PMS_P2;Temp;Humidity;BMP_temperature;BMP_pressure;BME280_temperature;BME280_humidity;BME280_pressure;Samples;Min_cycle;Max_cycle;Signal;HPM_P1;HPM_P2
2022/04/13 00:01:13;;;;;;;;;;;9.90;99.90;;;;;;5075219;28;19912;-42
2022/04/13 00:03:39;;;;;;;;;;;9.90;99.90;;;;;;5075512;28;19908;-41
2022/04/13 00:06:04;;;;;;;;;;;9.90;99.90;;;;;;5075180;28;20486;-41
2022/04/13 00:08:30;;;;;;;;;;;9.80;99.90;;;;;;5075253;28;20003;-42
2022/04/13 00:10:56;;;;;;;;;;;9.80;99.90;;;;;;5075133;28;19908;-42
2022/04/13 00:13:21;;;;;;;;;;;9.80;99.90;;;;;;5075257;28;20018;-41
2022/04/13 00:15:47;;;;;;;;;;;9.80;99.90;;;;;;5075248;28;19920;-42
2022/04/13 00:18:12;;;;;;;;;;;9.80;99.90;;;;;;5075304;28;19909;-42
2022/04/13 00:20:38;;;;;;;;;;;9.80;99.90;;;;;;5074886;28;20328;-42
2022/04/13 00:23:04;;;;;;;;;;;9.70;99.90;;;;;;5074768;28;19915;-42
2022/04/13 00:25:29;;;;;;;;;;;9.80;99.90;;;;;;5075274;28;19947;-42
2022/04/13 00:27:55;;;;;;;;;;;9.80;99.90;;;;;;5074672;28;19951;-42
2022/04/13 00:30:21;;;;;;;;;;;9.80;99.90;;;;;;5074871;28;19915;-42
2022/04/13 00:32:47;;;;;;;;;;;9.80;99.90;;;;;;5074498;28;19924;-43
2022/04/13 00:35:12;;;;;;;;;;;9.80;99.90;;;;;;5074729;28;19908;-42
2022/04/13 00:37:38;;;;;;;;;;;9.70;99.90;;;;;;5074709;28;19938;-41
2022/04/13 00:40:04;;;;;;;;;;;9.70;99.90;;;;;;5074484;28;19908;-41
2022/04/13 00:42:30;;;;;;;;;;;9.70;99.90;;;;;;5074256;28;20282;-40
2022/04/13 00:44:55;;;;;;;;;;;9.60;99.90;;;;;;5074623;28;19908;-42
2022/04/13 00:47:21;;;;;;;;;;;9.50;99.90;;;;;;5074497;28;20271;-40
2022/04/13 00:49:47;;;;;;;;;;;9.50;99.90;;;;;;5074225;28;19917;-42
2022/04/13 00:52:13;;;;;;;;;;;9.50;99.90;;;;;;5074102;28;20394;-41
2022/04/13 00:54:41;;;;;;;;;;;9.40;99.90;;;;;;5074498;28;19912;-42
2022/04/13 00:57:08;;;;;;;;;;;9.40;99.90;;;;;;5074415;28;19908;-41
2022/04/13 00:59:35;;;;;;;;;;;9.30;99.90;;;;;;5073601;28;19948;-41
2022/04/13 01:02:01;;;;;;;;;;;9.30;99.90;;;;;;5074184;28;19999;-40
2022/04/13 01:04:28;;;;;;;;;;;9.20;99.90;;;;;;5074620;28;19944;-41
2022/04/13 01:06:54;;;;;;;;;;;9.20;99.90;;;;;;5074156;28;19908;-41
2022/04/13 01:09:19;;;;;;;;;;;9.20;99.90;;;;;;5073930;28;20283;-42
2022/04/13 01:11:45;;;;;;;;;;;9.20;99.90;;;;;;5074180;28;19916;-43
2022/04/13 01:14:10;;;;;;;;;;;9.20;99.90;;;;;;5074030;28;19956;-40
2022/04/13 01:16:39;;;;;;;;;;;9.20;99.90;;;;;;5073799;28;19915;-42
2022/04/13 01:19:06;;;;;;;;;;;9.10;99.90;;;;;;5073607;28;20374;-40
2022/04/13 01:21:52;;;;;;;;;;;9.00;99.90;;;;;;5073905;28;19931;-41
2022/04/13 01:24:17;;;;;;;;;;;8.90;99.90;;;;;;5073900;28;19958;-40
2022/04/13 01:26:43;;;;;;;;;;;8.80;99.90;;;;;;5073888;28;20271;-41
2022/04/13 01:29:09;;;;;;;;;;;8.90;99.90;;;;;;5073655;28;19921;-42
2022/04/13 01:31:34;;;;;;;;;;;8.80;99.90;;;;;;5073709;28;20005;-42
2022/04/13 01:34:00;;;;;;;;;;;8.80;99.90;;;;;;5073795;28;20000;-42
2022/04/13 01:36:26;;;;;;;;;;;8.80;99.90;;;;;;5073856;28;19909;-41
2022/04/13 01:38:51;;;;;;;;;;;8.80;99.90;;;;;;5073436;28;20000;-41
2022/04/13 01:41:17;;;;;;;;;;;8.80;99.90;;;;;;5074175;28;19913;-41
2022/04/13 01:43:43;;;;;;;;;;;8.80;99.90;;;;;;5073883;28;20021;-41
2022/04/13 01:46:08;;;;;;;;;;;8.80;99.90;;;;;;5073805;28;19915;-42
2022/04/13 01:48:34;;;;;;;;;;;8.80;99.90;;;;;;5074066;28;20382;-41
2022/04/13 01:50:59;;;;;;;;;;;8.70;99.90;;;;;;5073578;28;19912;-41
2022/04/13 01:53:25;;;;;;;;;;;8.80;99.90;;;;;;5073669;28;20343;-42
2022/04/13 01:55:51;;;;;;;;;;;8.70;99.90;;;;;;5073423;28;19912;-41
2022/04/13 01:58:16;;;;;;;;;;;8.70;99.90;;;;;;5073581;28;19916;-42
2022/04/13 02:00:42;;;;;;;;;;;8.70;99.90;;;;;;5073586;28;20049;-42
2022/04/13 02:03:08;;;;;;;;;;;8.70;99.90;;;;;;5073624;28;19964;-42
2022/04/13 02:05:33;;;;;;;;;;;8.70;99.90;;;;;;5073259;28;19969;-41
2022/04/13 02:07:59;;;;;;;;;;;8.70;99.90;;;;;;5073368;28;20362;-41
2022/04/13 02:10:24;;;;;;;;;;;8.70;99.90;;;;;;5076093;28;19916;-41
2022/04/13 02:12:51;;;;;;;;;;;8.70;99.90;;;;;;5077232;28;19920;-41
2022/04/13 02:15:17;;;;;;;;;;;8.70;99.90;;;;;;5077530;28;20062;-42
2022/04/13 02:17:42;;;;;;;;;;;8.60;99.90;;;;;;5077483;28;19935;-40
2022/04/13 02:20:08;;;;;;;;;;;8.60;99.90;;;;;;5077660;28;19915;-41
2022/04/13 02:22:34;;;;;;;;;;;8.50;99.90;;;;;;5077106;28;19909;-41
2022/04/13 02:25:03;;;;;;;;;;;8.40;99.90;;;;;;5077283;28;19912;-41
2022/04/13 02:27:29;;;;;;;;;;;8.40;99.90;;;;;;5077300;28;19915;-41
2022/04/13 02:29:55;;;;;;;;;;;8.40;99.90;;;;;;5076897;28;20008;-41
2022/04/13 02:32:20;;;;;;;;;;;8.40;99.90;;;;;;5076900;28;19920;-42
2022/04/13 02:34:48;;;;;;;;;;;8.30;99.90;;;;;;5077106;28;19948;-42
2022/04/13 02:37:17;;;;;;;;;;;8.30;99.90;;;;;;5076702;28;20339;-41
2022/04/13 02:39:44;;;;;;;;;;;8.30;99.90;;;;;;5076976;28;19987;-41
2022/04/13 02:42:14;;;;;;;;;;;8.40;99.90;;;;;;5076969;28;19915;-41
2022/04/13 02:44:43;;;;;;;;;;;8.40;99.90;;;;;;5076897;28;20003;-43
2022/04/13 02:47:08;;;;;;;;;;;8.40;99.90;;;;;;5076842;28;19916;-41
2022/04/13 02:49:34;;;;;;;;;;;8.30;99.90;;;;;;5076771;28;19908;-41
2022/04/13 02:51:59;;;;;;;;;;;8.30;99.90;;;;;;5076879;28;19920;-42
2022/04/13 02:54:25;;;;;;;;;;;8.30;99.90;;;;;;5076744;28;19919;-42
2022/04/13 02:56:50;;;;;;;;;;;8.20;99.90;;;;;;5076704;28;19909;-41
2022/04/13 02:59:16;;;;;;;;;;;8.20;99.90;;;;;;5076511;28;20382;-41
2022/04/13 03:01:43;;;;;;;;;;;8.10;99.90;;;;;;5076499;28;19987;-42
2022/04/13 03:04:09;;;;;;;;;;;8.10;99.90;;;;;;5076513;28;19918;-41
2022/04/13 03:06:35;;;;;;;;;;;8.10;99.90;;;;;;5076168;28;19909;-41
2022/04/13 03:09:03;;;;;;;;;;;8.00;99.90;;;;;;5076002;28;19909;-41
2022/04/13 03:11:29;;;;;;;;;;;8.00;99.90;;;;;;5076275;28;19948;-41
2022/04/13 03:13:54;;;;;;;;;;;8.00;99.90;;;;;;5076373;28;19954;-42
2022/04/13 03:16:20;;;;;;;;;;;8.00;99.90;;;;;;5075992;28;19955;-41
2022/04/13 03:18:46;;;;;;;;;;;7.90;99.90;;;;;;5108941;28;19909;-41
2022/04/13 03:21:11;;;;;;;;;;;7.90;99.90;;;;;;5075216;28;19908;-41
2022/04/13 03:23:36;;;;;;;;;;;7.90;99.90;;;;;;5076047;28;20378;-41
2022/04/13 03:26:02;;;;;;;;;;;7.80;99.90;;;;;;5076119;28;19952;-42
2022/04/13 03:28:27;;;;;;;;;;;7.80;99.90;;;;;;5076068;28;19909;-41
2022/04/13 03:30:53;;;;;;;;;;;7.80;99.90;;;;;;5076037;28;19974;-41
2022/04/13 03:33:19;;;;;;;;;;;7.80;99.90;;;;;;5075390;28;20338;-41
2022/04/13 03:35:44;;;;;;;;;;;7.70;99.90;;;;;;5075880;28;19961;-42
2022/04/13 03:38:10;;;;;;;;;;;7.80;99.90;;;;;;5075600;28;20283;-41
2022/04/13 03:40:35;;;;;;;;;;;7.80;99.90;;;;;;5075380;28;19976;-41
2022/04/13 03:43:01;;;;;;;;;;;7.80;99.90;;;;;;5075779;28;19954;-41
2022/04/13 03:45:26;;;;;;;;;;;7.80;99.90;;;;;;5075348;28;20067;-40
2022/04/13 03:47:52;;;;;;;;;;;7.80;99.90;;;;;;5075220;28;20428;-41
2022/04/13 03:50:18;;;;;;;;;;;7.70;99.90;;;;;;5075033;28;19920;-42
2022/04/13 03:52:43;;;;;;;;;;;7.70;99.90;;;;;;5075143;28;19962;-42
2022/04/13 03:55:09;;;;;;;;;;;7.70;99.90;;;;;;5075062;28;20426;-41
2022/04/13 03:57:35;;;;;;;;;;;7.70;99.90;;;;;;5075050;28;19908;-42
2022/04/13 04:00:00;;;;;;;;;;;7.70;99.90;;;;;;5075409;28;19954;-41
2022/04/13 04:02:26;;;;;;;;;;;7.70;99.90;;;;;;5075329;28;19908;-41
2022/04/13 04:04:52;;;;;;;;;;;7.70;99.90;;;;;;5075525;28;19960;-40
2022/04/13 04:07:17;;;;;;;;;;;7.70;99.90;;;;;;5074984;28;19962;-41
2022/04/13 04:09:43;;;;;;;;;;;7.70;99.90;;;;;;5075291;28;19908;-42
2022/04/13 04:12:09;;;;;;;;;;;7.70;99.90;;;;;;5074791;28;19913;-42
2022/04/13 04:14:35;;;;;;;;;;;7.70;99.90;;;;;;5074705;28;20317;-42
2022/04/13 04:17:01;;;;;;;;;;;7.80;99.90;;;;;;5074671;28;19908;-41
2022/04/13 04:19:26;;;;;;;;;;;7.80;99.90;;;;;;5074688;28;19913;-41
2022/04/13 04:21:52;;;;;;;;;;;7.80;99.90;;;;;;5074843;28;19935;-41
2022/04/13 04:24:17;;;;;;;;;;;7.80;99.90;;;;;;5074740;28;20359;-41
2022/04/13 04:26:43;;;;;;;;;;;7.80;99.90;;;;;;5074920;28;19909;-42
2022/04/13 04:29:09;;;;;;;;;;;7.80;99.90;;;;;;5074381;28;19935;-42
2022/04/13 04:31:50;;;;;;;;;;;7.80;99.90;;;;;;5074443;28;20340;-41
2022/04/13 04:34:16;;;;;;;;;;;7.80;99.90;;;;;;5074456;28;19908;-41
2022/04/13 04:36:41;;;;;;;;;;;7.80;99.90;;;;;;5074550;28;19908;-42
2022/04/13 04:39:07;;;;;;;;;;;7.80;99.90;;;;;;5072893;28;19919;-42
2022/04/13 04:41:32;;;;;;;;;;;7.80;99.90;;;;;;5074127;28;20000;-40
2022/04/13 04:43:58;;;;;;;;;;;7.80;99.90;;;;;;5074408;28;19961;-42
2022/04/13 04:46:24;;;;;;;;;;;7.80;99.90;;;;;;5073897;28;19908;-42
2022/04/13 04:48:49;;;;;;;;;;;7.70;99.90;;;;;;5073973;28;19908;-43
2022/04/13 04:51:15;;;;;;;;;;;7.70;99.90;;;;;;5073701;28;20314;-41
2022/04/13 04:53:41;;;;;;;;;;;7.70;99.90;;;;;;5074144;28;19917;-40
2022/04/13 04:56:07;;;;;;;;;;;7.80;99.90;;;;;;5073765;28;20040;-42
2022/04/13 04:58:32;;;;;;;;;;;7.90;99.90;;;;;;5073742;28;19916;-41
2022/04/13 05:00:58;;;;;;;;;;;8.00;99.90;;;;;;5073681;28;19908;-42
2022/04/13 05:03:23;;;;;;;;;;;8.00;99.90;;;;;;5073717;28;19908;-42
2022/04/13 05:05:49;;;;;;;;;;;8.10;99.90;;;;;;5073998;28;19947;-43
2022/04/13 05:08:14;;;;;;;;;;;8.10;99.90;;;;;;5073330;28;20011;-41
2022/04/13 05:10:42;;;;;;;;;;;8.30;99.90;;;;;;5073263;28;19913;-42
2022/04/13 05:13:08;;;;;;;;;;;8.40;99.90;;;;;;5073580;28;20359;-42
2022/04/13 05:15:33;;;;;;;;;;;8.40;99.90;;;;;;5073311;28;19924;-42
2022/04/13 05:17:59;;;;;;;;;;;8.50;99.90;;;;;;5073566;28;20397;-41
2022/04/13 05:20:25;;;;;;;;;;;8.60;99.90;;;;;;5073323;28;20369;-41
2022/04/13 05:22:50;;;;;;;;;;;8.70;99.90;;;;;;5073682;28;19916;-43
2022/04/13 05:25:16;;;;;;;;;;;8.90;99.90;;;;;;5073951;28;19908;-44
2022/04/13 05:27:42;;;;;;;;;;;8.90;99.90;;;;;;5072079;28;19920;-43
2022/04/13 05:30:08;;;;;;;;;;;9.00;99.90;;;;;;5073372;28;19921;-42
2022/04/13 05:32:49;;;;;;;;;;;9.10;99.90;;;;;;5073092;28;19971;-42
2022/04/13 05:35:14;;;;;;;;;;;9.20;99.90;;;;;;5072979;28;20411;-43
2022/04/13 05:37:40;;;;;;;;;;;9.30;99.90;;;;;;5073401;28;19944;-42
2022/04/13 05:40:06;;;;;;;;;;;9.30;99.90;;;;;;5072737;28;19924;-42
2022/04/13 05:42:31;;;;;;;;;;;9.40;99.90;;;;;;5072935;28;20260;-42
2022/04/13 05:44:58;;;;;;;;;;;9.40;99.90;;;;;;5072712;28;19919;-42
2022/04/13 05:47:23;;;;;;;;;;;9.50;99.90;;;;;;5072710;28;19962;-42
2022/04/13 05:49:49;;;;;;;;;;;9.50;99.90;;;;;;5088381;28;19912;-41
2022/04/13 05:52:15;;;;;;;;;;;9.60;99.90;;;;;;5073077;28;19912;-42
2022/04/13 05:54:40;;;;;;;;;;;9.60;99.90;;;;;;5073105;28;19942;-42
2022/04/13 05:57:06;;;;;;;;;;;9.70;99.90;;;;;;5073252;28;19995;-42
2022/04/13 05:59:32;;;;;;;;;;;9.70;99.90;;;;;;5073007;28;19940;-42
2022/04/13 06:01:57;;;;;;;;;;;9.80;99.90;;;;;;5072750;28;19915;-41
2022/04/13 06:04:23;;;;;;;;;;;9.90;99.90;;;;;;5073529;28;19962;-42
2022/04/13 06:06:49;;;;;;;;;;;9.90;99.90;;;;;;5072620;28;20270;-41
2022/04/13 06:09:14;;;;;;;;;;;10.00;99.90;;;;;;5088271;28;19908;-42
2022/04/13 06:11:39;;;;;;;;;;;10.10;99.90;;;;;;5072673;28;19908;-41
2022/04/13 06:14:05;;;;;;;;;;;10.20;99.90;;;;;;5072699;28;19920;-41
2022/04/13 06:16:31;;;;;;;;;;;10.30;99.90;;;;;;5073044;28;20370;-42
2022/04/13 06:18:56;;;;;;;;;;;10.30;99.90;;;;;;5072472;28;20041;-42
2022/04/13 06:21:22;;;;;;;;;;;10.40;99.90;;;;;;5072572;28;20037;-42
2022/04/13 06:23:47;;;;;;;;;;;10.40;99.90;;;;;;5073127;28;19940;-41
2022/04/13 06:26:13;;;;;;;;;;;10.50;99.90;;;;;;5072540;28;20327;-41
2022/04/13 06:28:38;;;;;;;;;;;10.60;99.90;;;;;;5072429;28;19908;-42
2022/04/13 06:31:04;;;;;;;;;;;10.70;99.90;;;;;;5072695;28;19954;-43
2022/04/13 06:33:29;;;;;;;;;;;10.80;99.90;;;;;;5072310;28;20321;-44
2022/04/13 06:35:55;;;;;;;;;;;10.90;99.90;;;;;;5072718;28;19915;-43
2022/04/13 06:38:20;;;;;;;;;;;11.00;99.90;;;;;;5072979;28;20003;-42
2022/04/13 06:40:46;;;;;;;;;;;11.20;99.90;;;;;;5072253;28;20329;-41
2022/04/13 06:43:11;;;;;;;;;;;11.30;99.90;;;;;;5072884;28;20003;-42
2022/04/13 06:45:37;;;;;;;;;;;11.40;99.90;;;;;;5072374;28;19912;-43
2022/04/13 06:48:03;;;;;;;;;;;11.60;99.90;;;;;;5072526;28;19984;-41
2022/04/13 06:50:28;;;;;;;;;;;11.70;99.90;;;;;;5072954;28;19909;-41
2022/04/13 06:52:54;;;;;;;;;;;12.00;99.90;;;;;;5072092;28;19973;-41
2022/04/13 06:55:19;;;;;;;;;;;12.00;99.90;;;;;;5072509;28;20057;-43
2022/04/13 06:57:45;;;;;;;;;;;12.00;99.90;;;;;;5075263;28;19995;-43
2022/04/13 07:00:12;;;;;;;;;;;12.10;99.90;;;;;;5075774;28;20291;-41
2022/04/13 07:02:37;;;;;;;;;;;12.20;99.90;;;;;;5076145;28;19961;-42
2022/04/13 07:05:04;;;;;;;;;;;12.30;99.90;;;;;;5076050;28;20394;-43
2022/04/13 07:07:29;;;;;;;;;;;12.50;99.90;;;;;;5075883;28;19908;-42
2022/04/13 07:09:55;;;;;;;;;;;12.60;99.90;;;;;;5075612;28;19931;-42
2022/04/13 07:12:20;;;;;;;;;;;12.70;99.90;;;;;;5075901;28;19912;-42
2022/04/13 07:14:46;;;;;;;;;;;12.90;99.90;;;;;;5075569;28;19995;-42
2022/04/13 07:17:12;;;;;;;;;;;13.00;99.90;;;;;;5075674;28;19935;-43
2022/04/13 07:19:37;;;;;;;;;;;13.30;99.90;;;;;;5075424;28;19952;-43
2022/04/13 07:22:03;;;;;;;;;;;13.50;99.90;;;;;;5075467;28;19908;-41
2022/04/13 07:24:29;;;;;;;;;;;13.70;99.90;;;;;;5075197;28;19909;-42
2022/04/13 07:26:54;;;;;;;;;;;13.80;99.90;;;;;;5075735;28;20369;-42
2022/04/13 07:29:20;;;;;;;;;;;13.90;99.90;;;;;;5075117;28;20255;-43
2022/04/13 07:31:45;;;;;;;;;;;14.00;99.90;;;;;;5075112;28;19962;-43
2022/04/13 07:34:11;;;;;;;;;;;14.20;99.90;;;;;;5075610;28;19953;-42
2022/04/13 07:36:36;;;;;;;;;;;14.40;99.90;;;;;;5075321;28;19997;-41
2022/04/13 07:39:02;;;;;;;;;;;14.50;99.90;;;;;;5074602;28;20013;-42
2022/04/13 07:41:28;;;;;;;;;;;14.60;99.90;;;;;;5075340;28;19914;-42
2022/04/13 07:43:55;;;;;;;;;;;14.60;99.90;;;;;;5075217;28;20007;-42
2022/04/13 07:46:21;;;;;;;;;;;14.60;99.90;;;;;;5075237;28;19909;-42
2022/04/13 07:48:47;;;;;;;;;;;14.70;99.90;;;;;;5074914;28;19996;-42
2022/04/13 07:51:12;;;;;;;;;;;14.70;99.90;;;;;;5074703;28;19931;-42
2022/04/13 07:53:38;;;;;;;;;;;14.90;99.90;;;;;;5074946;28;19939;-43
2022/04/13 07:56:03;;;;;;;;;;;15.10;99.90;;;;;;5074378;28;19913;-42
2022/04/13 07:58:29;;;;;;;;;;;15.20;99.90;;;;;;5074978;28;20355;-42
2022/04/13 08:00:55;;;;;;;;;;;15.30;99.90;;;;;;5074593;28;19912;-42
2022/04/13 08:03:20;;;;;;;;;;;15.40;99.90;;;;;;5074845;28;19909;-42
2022/04/13 08:05:46;;;;;;;;;;;15.60;99.90;;;;;;5074768;28;19952;-42
2022/04/13 08:08:11;;;;;;;;;;;15.90;99.90;;;;;;5074198;28;19937;-42
2022/04/13 08:10:37;;;;;;;;;;;15.80;99.90;;;;;;5075127;28;19912;-42
2022/04/13 08:13:02;;;;;;;;;;;15.70;99.90;;;;;;5074458;28;20058;-42
2022/04/13 08:15:28;;;;;;;;;;;15.70;99.90;;;;;;5106965;28;19966;-41
2022/04/13 08:17:53;;;;;;;;;;;15.70;99.90;;;;;;5074436;28;19998;-43
2022/04/13 08:20:19;;;;;;;;;;;15.80;99.90;;;;;;5074752;28;20225;-41
2022/04/13 08:22:46;;;;;;;;;;;16.10;99.90;;;;;;5073184;28;19908;-42
2022/04/13 08:25:12;;;;;;;;;;;16.50;99.90;;;;;;5074765;28;19931;-42
2022/04/13 08:27:38;;;;;;;;;;;16.70;99.90;;;;;;5074083;28;19947;-42
2022/04/13 08:30:04;;;;;;;;;;;16.60;99.90;;;;;;5074035;28;20220;-46
2022/04/13 08:32:29;;;;;;;;;;;16.70;99.60;;;;;;5074103;28;19975;-41
2022/04/13 08:34:55;;;;;;;;;;;16.80;99.90;;;;;;5074162;28;20416;-42
2022/04/13 08:37:21;;;;;;;;;;;16.80;99.20;;;;;;5072710;28;19908;-42
2022/04/13 08:39:47;;;;;;;;;;;16.90;99.30;;;;;;5074106;28;20409;-42
2022/04/13 08:42:14;;;;;;;;;;;16.70;99.20;;;;;;5073971;28;20019;-46
2022/04/13 08:44:45;;;;;;;;;;;16.70;99.10;;;;;;5073961;28;19939;-41
2022/04/13 08:47:19;;;;;;;;;;;16.90;98.70;;;;;;5073965;28;19950;-43
2022/04/13 08:49:45;;;;;;;;;;;17.10;98.30;;;;;;5074135;28;19915;-42
2022/04/13 08:52:13;;;;;;;;;;;17.30;98.20;;;;;;5074154;28;19919;-43
2022/04/13 08:54:44;;;;;;;;;;;17.50;97.80;;;;;;5073805;28;19912;-42
2022/04/13 08:57:11;;;;;;;;;;;17.60;97.60;;;;;;5073851;28;19908;-42
2022/04/13 08:59:55;;;;;;;;;;;17.50;97.30;;;;;;5073640;28;20343;-43
2022/04/13 09:02:21;;;;;;;;;;;17.60;97.50;;;;;;5073538;28;20043;-42
2022/04/13 09:04:47;;;;;;;;;;;17.70;97.30;;;;;;5073794;28;20016;-45
2022/04/13 09:07:16;;;;;;;;;;;17.60;97.00;;;;;;5073425;28;19909;-43
2022/04/13 09:09:44;;;;;;;;;;;17.90;96.80;;;;;;5073747;28;19916;-45
2022/04/13 09:12:11;;;;;;;;;;;18.20;96.90;;;;;;5073378;28;20000;-43
2022/04/13 09:14:37;;;;;;;;;;;18.40;97.20;;;;;;5089163;28;19954;-42
2022/04/13 09:17:04;;;;;;;;;;;18.50;97.10;;;;;;5073551;28;19947;-42
2022/04/13 09:19:29;;;;;;;;;;;18.70;96.70;;;;;;5072442;28;20308;-43
2022/04/13 09:21:55;;;;;;;;;;;19.00;96.20;;;;;;5073612;28;19987;-42
2022/04/13 09:24:21;;;;;;;;;;;19.00;95.20;;;;;;5073586;28;20005;-41
2022/04/13 09:26:48;;;;;;;;;;;18.80;95.30;;;;;;5073750;28;19916;-42
2022/04/13 09:29:13;;;;;;;;;;;18.90;95.20;;;;;;5073552;28;19909;-43
2022/04/13 09:31:39;;;;;;;;;;;18.70;95.30;;;;;;5073219;28;19908;-44
2022/04/13 09:34:04;;;;;;;;;;;18.60;95.40;;;;;;5105816;28;20354;-42
2022/04/13 09:36:30;;;;;;;;;;;18.60;95.40;;;;;;5072953;28;19909;-42
2022/04/13 09:38:56;;;;;;;;;;;18.50;95.80;;;;;;5073593;28;20270;-42
2022/04/13 09:41:32;;;;;;;;;;;18.70;95.00;;;;;;5073320;28;19959;-43
2022/04/13 09:43:57;;;;;;;;;;;18.70;95.00;;;;;;5072316;28;19956;-43
2022/04/13 09:46:26;;;;;;;;;;;18.60;94.80;;;;;;5073560;28;19971;-41
2022/04/13 09:49:11;;;;;;;;;;;18.80;95.60;;;;;;5072709;28;20377;-42
2022/04/13 09:51:37;;;;;;;;;;;18.80;95.00;;;;;;5072862;28;19995;-43
2022/04/13 09:54:07;;;;;;;;;;;18.80;94.90;;;;;;5105510;28;19909;-45
2022/04/13 09:56:33;;;;;;;;;;;19.00;94.70;;;;;;5073167;28;19908;-44
2022/04/13 09:58:58;;;;;;;;;;;19.30;94.30;;;;;;5073212;28;19908;-42
2022/04/13 10:01:24;;;;;;;;;;;19.10;94.50;;;;;;5088735;28;19931;-43
2022/04/13 10:03:54;;;;;;;;;;;19.10;94.50;;;;;;5073098;28;19909;-42
2022/04/13 10:06:25;;;;;;;;;;;18.80;94.30;;;;;;5072857;28;19908;-44
2022/04/13 10:08:57;;;;;;;;;;;19.10;94.50;;;;;;5072614;28;19931;-41
2022/04/13 10:11:22;;;;;;;;;;;19.50;94.30;;;;;;5072867;28;19920;-42
2022/04/13 10:13:48;;;;;;;;;;;19.50;94.20;;;;;;5072644;28;19917;-44
2022/04/13 10:16:14;;;;;;;;;;;19.80;94.40;;;;;;5072611;28;19908;-42
2022/04/13 10:18:56;;;;;;;;;;;19.90;93.70;;;;;;5072581;28;19909;-42
2022/04/13 10:21:35;;;;;;;;;;;19.90;93.90;;;;;;5072763;28;19944;-42
2022/04/13 10:24:01;;;;;;;;;;;19.90;94.40;;;;;;5072498;28;19944;-45
2022/04/13 10:26:26;;;;;;;;;;;19.10;95.00;;;;;;5072889;28;19908;-42
2022/04/13 10:28:52;;;;;;;;;;;18.90;95.30;;;;;;5072314;28;19920;-44
2022/04/13 10:31:17;;;;;;;;;;;19.00;95.80;;;;;;5075102;28;19916;-44
2022/04/13 10:33:49;;;;;;;;;;;18.90;95.80;;;;;;5076704;28;19920;-43
2022/04/13 10:36:15;;;;;;;;;;;18.80;95.70;;;;;;5076250;28;19915;-41
2022/04/13 10:38:41;;;;;;;;;;;18.80;95.90;;;;;;5076199;28;19908;-43
2022/04/13 10:41:12;;;;;;;;;;;19.10;95.80;;;;;;5076138;28;20004;-44
2022/04/13 10:43:39;;;;;;;;;;;18.90;95.70;;;;;;5076404;28;19943;-43
2022/04/13 10:46:05;;;;;;;;;;;19.10;95.30;;;;;;5076385;28;19915;-42
2022/04/13 10:48:32;;;;;;;;;;;19.40;95.70;;;;;;5076096;28;19986;-42
2022/04/13 10:51:02;;;;;;;;;;;19.70;95.50;;;;;;5076241;28;19916;-42
2022/04/13 10:53:28;;;;;;;;;;;19.40;95.50;;;;;;5074909;28;19920;-42
2022/04/13 10:55:54;;;;;;;;;;;19.50;95.80;;;;;;5076061;28;20003;-43
2022/04/13 10:58:35;;;;;;;;;;;19.70;95.30;;;;;;5091646;28;20332;-42
2022/04/13 11:01:05;;;;;;;;;;;19.50;95.40;;;;;;5076121;28;19908;-42
2022/04/13 11:03:36;;;;;;;;;;;20.20;94.60;;;;;;5075718;28;20027;-42
2022/04/13 11:06:06;;;;;;;;;;;20.00;94.00;;;;;;5075251;28;19931;-42
2022/04/13 11:08:46;;;;;;;;;;;20.40;94.00;;;;;;5075902;28;19913;-43
2022/04/13 11:11:19;;;;;;;;;;;19.70;94.00;;;;;;5076120;28;19931;-43
2022/04/13 11:13:45;;;;;;;;;;;19.90;94.70;;;;;;5075688;28;19916;-43
2022/04/13 11:16:15;;;;;;;;;;;20.00;94.80;;;;;;5075770;28;19936;-42
2022/04/13 11:18:41;;;;;;;;;;;19.80;94.90;;;;;;5075752;28;19908;-42
2022/04/13 11:21:07;;;;;;;;;;;20.30;94.90;;;;;;5091573;28;20010;-45
2022/04/13 11:23:49;;;;;;;;;;;20.40;95.00;;;;;;5075707;28;19908;-42
2022/04/13 11:26:16;;;;;;;;;;;20.30;94.60;;;;;;5075513;28;19915;-44
2022/04/13 11:28:41;;;;;;;;;;;20.40;94.80;;;;;;5075346;28;20062;-43
2022/04/13 11:31:11;;;;;;;;;;;20.20;94.90;;;;;;5075470;28;19962;-43
2022/04/13 11:33:42;;;;;;;;;;;20.50;94.50;;;;;;5073615;28;20019;-41
2022/04/13 11:36:08;;;;;;;;;;;20.20;94.40;;;;;;5074885;28;19912;-43
2022/04/13 11:38:36;;;;;;;;;;;20.60;94.10;;;;;;5074662;28;19916;-42
2022/04/13 11:41:07;;;;;;;;;;;20.70;93.90;;;;;;5075269;28;20314;-43
2022/04/13 11:43:33;;;;;;;;;;;20.70;94.00;;;;;;5074251;28;19908;-43
2022/04/13 11:45:59;;;;;;;;;;;20.50;93.90;;;;;;5074686;28;19916;-41
2022/04/13 11:48:34;;;;;;;;;;;20.60;93.90;;;;;;5074708;28;19908;-43
2022/04/13 11:51:19;;;;;;;;;;;20.90;93.60;;;;;;5090637;28;19908;-43
2022/04/13 11:53:54;;;;;;;;;;;20.90;93.40;;;;;;5074302;28;19924;-44
2022/04/13 11:56:36;;;;;;;;;;;21.20;93.60;;;;;;5075235;28;19908;-45
2022/04/13 11:59:02;;;;;;;;;;;21.20;92.90;;;;;;5074981;28;19920;-44
2022/04/13 12:01:28;;;;;;;;;;;20.50;93.40;;;;;;5074480;28;19920;-43
2022/04/13 12:03:55;;;;;;;;;;;20.20;93.70;;;;;;5074968;28;20275;-45
2022/04/13 12:06:24;;;;;;;;;;;20.50;93.50;;;;;;5074254;28;19916;-41
2022/04/13 12:08:57;;;;;;;;;;;20.70;93.40;;;;;;5074686;28;19908;-45
2022/04/13 12:11:38;;;;;;;;;;;20.40;93.40;;;;;;5074732;28;19908;-42
2022/04/13 12:14:03;;;;;;;;;;;20.80;92.90;;;;;;5075067;28;20351;-42
2022/04/13 12:16:30;;;;;;;;;;;21.10;92.90;;;;;;5074493;28;19909;-42
2022/04/13 12:19:01;;;;;;;;;;;21.20;92.80;;;;;;5073905;28;19970;-43
2022/04/13 12:21:28;;;;;;;;;;;20.70;93.10;;;;;;5074972;28;20002;-42
2022/04/13 12:23:54;;;;;;;;;;;20.80;92.80;;;;;;5074270;28;20359;-42
2022/04/13 12:26:36;;;;;;;;;;;20.90;92.90;;;;;;5073898;28;20002;-46
2022/04/13 12:29:10;;;;;;;;;;;21.30;92.70;;;;;;5074014;28;19952;-43
2022/04/13 12:31:42;;;;;;;;;;;21.30;92.50;;;;;;5073718;28;20313;-44
2022/04/13 12:34:13;;;;;;;;;;;21.30;92.30;;;;;;5074410;28;20312;-44
2022/04/13 12:36:40;;;;;;;;;;;21.60;91.80;;;;;;5074409;28;19915;-42
2022/04/13 12:39:09;;;;;;;;;;;21.60;91.80;;;;;;5074143;28;20003;-43
2022/04/13 12:41:35;;;;;;;;;;;21.40;91.90;;;;;;5073951;28;20263;-42
2022/04/13 12:44:01;;;;;;;;;;;21.40;92.00;;;;;;5072552;28;19909;-43
2022/04/13 12:46:28;;;;;;;;;;;21.60;92.10;;;;;;5072394;28;19909;-43
2022/04/13 12:48:57;;;;;;;;;;;21.50;92.40;;;;;;5073784;28;20002;-45
2022/04/13 12:51:23;;;;;;;;;;;21.40;92.40;;;;;;5073896;28;19909;-44
2022/04/13 12:53:48;;;;;;;;;;;20.80;93.40;;;;;;5073786;28;20320;-47
2022/04/13 12:56:19;;;;;;;;;;;21.20;93.10;;;;;;5073458;28;20370;-46
2022/04/13 12:58:44;;;;;;;;;;;21.50;92.90;;;;;;5073704;28;19916;-43
2022/04/13 13:01:20;;;;;;;;;;;21.30;93.20;;;;;;5073761;28;19909;-43
2022/04/13 13:03:46;;;;;;;;;;;21.00;93.30;;;;;;5073419;28;20109;-42
2022/04/13 13:06:12;;;;;;;;;;;21.40;93.00;;;;;;5073275;28;20335;-42
2022/04/13 13:08:51;;;;;;;;;;;21.40;92.90;;;;;;5073725;28;19951;-44
2022/04/13 13:11:17;;;;;;;;;;;21.20;93.30;;;;;;5073281;28;19912;-42
2022/04/13 13:13:42;;;;;;;;;;;21.00;93.40;;;;;;5071914;28;20276;-44
2022/04/13 13:16:08;;;;;;;;;;;21.20;93.60;;;;;;5073600;28;20015;-43
2022/04/13 13:18:34;;;;;;;;;;;21.30;93.40;;;;;;5073188;28;19943;-44
2022/04/13 13:20:59;;;;;;;;;;;21.60;93.20;;;;;;5072081;28;20307;-44
2022/04/13 13:23:29;;;;;;;;;;;21.40;93.50;;;;;;5073499;28;20220;-43
2022/04/13 13:25:55;;;;;;;;;;;21.50;93.30;;;;;;5073132;28;19908;-42
2022/04/13 13:28:24;;;;;;;;;;;21.70;93.20;;;;;;5073115;28;20447;-43
2022/04/13 13:30:50;;;;;;;;;;;21.90;93.30;;;;;;5072867;28;19962;-44
2022/04/13 13:33:16;;;;;;;;;;;22.00;93.30;;;;;;5073458;28;19920;-43
2022/04/13 13:35:41;;;;;;;;;;;21.90;93.20;;;;;;5072866;28;20401;-41
2022/04/13 13:38:10;;;;;;;;;;;21.90;93.20;;;;;;5071138;28;20216;-43
2022/04/13 13:40:41;;;;;;;;;;;21.80;93.40;;;;;;5073010;28;19915;-44
2022/04/13 13:43:10;;;;;;;;;;;22.20;93.50;;;;;;5072829;28;20008;-42
2022/04/13 13:45:37;;;;;;;;;;;22.10;93.40;;;;;;5072788;28;19954;-43
2022/04/13 13:48:03;;;;;;;;;;;22.00;93.30;;;;;;5072541;28;19908;-41
2022/04/13 13:50:29;;;;;;;;;;;21.50;94.10;;;;;;5073240;28;19909;-43
2022/04/13 13:52:55;;;;;;;;;;;21.10;94.60;;;;;;5071619;28;19972;-45
2022/04/13 13:55:27;;;;;;;;;;;21.40;94.50;;;;;;5072688;28;19920;-44
2022/04/13 13:57:54;;;;;;;;;;;21.40;94.70;;;;;;5072760;28;19965;-43
2022/04/13 14:00:19;;;;;;;;;;;21.50;94.50;;;;;;5072978;28;20247;-43
2022/04/13 14:02:52;;;;;;;;;;;21.70;94.30;;;;;;5072373;28;19927;-45
2022/04/13 14:05:24;;;;;;;;;;;21.60;94.50;;;;;;5073289;28;19912;-43
2022/04/13 14:07:51;;;;;;;;;;;21.50;94.50;;;;;;5092297;28;20009;-43
2022/04/13 14:10:16;;;;;;;;;;;21.20;94.60;;;;;;5076844;28;19909;-43
2022/04/13 14:12:42;;;;;;;;;;;20.90;95.20;;;;;;5076863;28;19931;-43
2022/04/13 14:15:11;;;;;;;;;;;20.90;95.30;;;;;;5076848;28;19916;-42
2022/04/13 14:17:40;;;;;;;;;;;21.10;95.20;;;;;;5076632;28;20323;-43
2022/04/13 14:20:06;;;;;;;;;;;21.20;95.20;;;;;;5076732;28;19959;-44
2022/04/13 14:22:35;;;;;;;;;;;21.10;95.20;;;;;;5076672;28;19959;-42